createdAt,value
2018-02-02T00:01:37.122Z,2.10
2018-02-02T00:04:06.380Z,2.20
2018-02-02T00:06:36.063Z,2.20
2018-02-02T00:09:06.043Z,2.10
2018-02-02T00:11:35.330Z,2.10
2018-02-02T00:14:04.482Z,2.10
2018-02-02T00:16:33.656Z,2.10
2018-02-02T00:19:02.969Z,2.00
2018-02-02T00:21:32.933Z,2.10
2018-02-02T00:24:01.903Z,2.10
2018-02-02T00:26:31.257Z,2.20
2018-02-02T00:29:00.314Z,2.20
2018-02-02T00:31:29.637Z,2.10
2018-02-02T00:33:59.267Z,1.90
2018-02-02T00:36:28.533Z,1.90
2018-02-02T00:38:57.769Z,1.90
2018-02-02T00:41:27.150Z,2.00
2018-02-02T00:43:57.132Z,1.90
2018-02-02T00:46:26.345Z,1.90
2018-02-02T00:48:55.608Z,1.90
2018-02-02T00:51:29.446Z,2.10
2018-02-02T00:53:58.709Z,2.20
2018-02-02T00:56:28.689Z,2.30
2018-02-02T00:58:57.686Z,2.30
2018-02-02T01:01:26.598Z,2.10
2018-02-02T01:03:55.797Z,2.20
2018-02-02T01:06:25.362Z,2.10
2018-02-02T01:08:54.826Z,2.00
2018-02-02T01:11:25.124Z,2.10
2018-02-02T01:13:54.431Z,2.10
2018-02-02T01:16:24.256Z,2.10
2018-02-02T01:18:53.999Z,2.10
2018-02-02T01:21:23.310Z,2.00
2018-02-02T01:23:52.622Z,2.00
2018-02-02T01:26:22.279Z,2.10
2018-02-02T01:28:51.784Z,1.90
2018-02-02T01:31:21.241Z,2.10
2018-02-02T01:33:50.398Z,2.20
2018-02-02T01:36:19.527Z,2.20
2018-02-02T01:38:48.956Z,2.30
2018-02-02T01:41:18.324Z,2.30
2018-02-02T01:43:47.329Z,2.20
2018-02-02T01:46:16.646Z,2.10
2018-02-02T01:48:46.372Z,2.00
2018-02-02T01:51:15.721Z,2.00
2018-02-02T01:53:44.777Z,1.90
2018-02-02T01:56:15.763Z,2.00
2018-02-02T01:58:45.757Z,2.10
2018-02-02T02:01:14.979Z,2.10
2018-02-02T02:03:44.697Z,2.00
2018-02-02T02:06:13.993Z,2.10
2018-02-02T02:08:44.069Z,2.00
2018-02-02T02:11:13.638Z,2.10
2018-02-02T02:13:42.959Z,2.10
2018-02-02T02:16:12.382Z,1.90
2018-02-02T02:18:42.143Z,1.90
2018-02-02T02:21:11.789Z,2.00
2018-02-02T02:23:41.083Z,1.90
2018-02-02T02:26:10.638Z,2.00
2018-02-02T02:28:39.884Z,2.10
2018-02-02T02:31:08.976Z,2.10
2018-02-02T02:33:38.709Z,2.30
2018-02-02T02:36:08.419Z,2.10
2018-02-02T02:38:38.365Z,1.90
2018-02-02T02:41:07.665Z,1.90
2018-02-02T02:43:36.695Z,2.00
2018-02-02T02:46:05.873Z,2.00
2018-02-02T02:48:34.854Z,2.10
2018-02-02T02:51:04.270Z,2.20
2018-02-02T02:53:33.350Z,2.30
2018-02-02T02:56:02.669Z,2.40
2018-02-02T02:58:32.429Z,2.40
2018-02-02T03:01:01.671Z,2.40
2018-02-02T03:03:30.991Z,2.40
2018-02-02T03:06:01.298Z,2.30
2018-02-02T03:08:30.585Z,2.30
2018-02-02T03:11:00.541Z,2.30
2018-02-02T03:13:29.837Z,2.30
2018-02-02T03:15:58.873Z,2.00
2018-02-02T03:18:28.087Z,2.20
2018-02-02T03:20:57.854Z,2.30
2018-02-02T03:23:27.101Z,2.40
2018-02-02T03:25:56.402Z,2.40
2018-02-02T03:28:26.157Z,2.40
2018-02-02T03:30:55.466Z,2.40
2018-02-02T03:33:24.470Z,2.40
2018-02-02T03:35:54.148Z,2.40
2018-02-02T03:38:23.202Z,2.40
2018-02-02T03:40:52.757Z,2.30
2018-02-02T03:43:22.157Z,2.20
2018-02-02T03:45:51.697Z,2.30
2018-02-02T03:48:21.413Z,2.30
2018-02-02T03:50:51.186Z,2.20
2018-02-02T03:53:20.755Z,2.30
2018-02-02T03:55:50.269Z,2.30
2018-02-02T03:58:19.778Z,2.40
2018-02-02T04:00:49.169Z,2.40
2018-02-02T04:03:19.313Z,2.40
2018-02-02T04:05:48.623Z,2.20
2018-02-02T04:08:18.086Z,2.00
2018-02-02T04:10:47.601Z,1.90
2018-02-02T04:13:17.079Z,2.00
2018-02-02T04:15:46.383Z,2.00
2018-02-02T04:18:16.065Z,2.10
2018-02-02T04:20:46.110Z,2.20
2018-02-02T04:23:15.699Z,2.20
2018-02-02T04:25:46.277Z,2.20
2018-02-02T04:28:15.299Z,2.20
2018-02-02T04:30:44.334Z,2.10
2018-02-02T04:33:13.572Z,2.00
2018-02-02T04:35:42.921Z,2.00
2018-02-02T04:38:13.074Z,2.20
2018-02-02T04:40:42.320Z,2.20
2018-02-02T04:43:11.573Z,2.00
2018-02-02T04:45:40.869Z,2.00
2018-02-02T04:48:10.477Z,2.10
2018-02-02T04:50:40.245Z,2.10
2018-02-02T04:53:09.985Z,2.00
2018-02-02T04:55:39.320Z,2.00
2018-02-02T04:58:08.256Z,1.90
2018-02-02T05:00:37.373Z,1.90
2018-02-02T05:03:07.131Z,1.80
2018-02-02T05:05:36.484Z,1.80
2018-02-02T05:08:06.643Z,1.80
2018-02-02T05:10:36.018Z,1.90
2018-02-02T05:13:05.274Z,1.90
2018-02-02T05:15:35.034Z,2.10
2018-02-02T05:18:04.333Z,2.10
2018-02-02T05:20:33.301Z,2.20
2018-02-02T05:23:02.232Z,2.10
2018-02-02T05:25:31.512Z,2.10
2018-02-02T05:28:00.490Z,2.20
2018-02-02T05:30:30.727Z,2.20
2018-02-02T05:33:00.325Z,2.20
2018-02-02T05:35:29.410Z,2.20
2018-02-02T05:37:58.819Z,2.30
2018-02-02T06:58:01.306Z,2.30
2018-02-02T07:00:30.221Z,2.20
2018-02-02T07:02:59.243Z,2.30
2018-02-02T07:05:28.204Z,2.20
2018-02-02T07:07:57.579Z,2.20
2018-02-02T07:10:26.640Z,2.10
2018-02-02T07:12:56.035Z,2.10
2018-02-02T07:15:25.090Z,2.20
2018-02-02T07:17:54.113Z,2.10
2018-02-02T07:20:23.153Z,2.20
2018-02-02T07:22:52.782Z,2.20
2018-02-02T07:25:21.900Z,2.30
2018-02-02T07:27:50.850Z,2.30
2018-02-02T07:30:21.072Z,2.40
2018-02-02T07:32:50.062Z,2.40
2018-02-02T07:35:19.810Z,2.20
2018-02-02T07:37:49.194Z,2.30
2018-02-02T07:40:18.413Z,2.30
2018-02-02T07:42:47.557Z,2.30
2018-02-02T07:45:16.876Z,2.30
2018-02-02T07:47:45.819Z,2.20
2018-02-02T07:50:14.909Z,2.30
2018-02-02T07:52:44.318Z,2.30
2018-02-02T07:55:13.320Z,2.40
2018-02-02T07:57:42.305Z,2.50
2018-02-02T08:00:11.682Z,2.40
2018-02-02T08:02:41.035Z,2.50
2018-02-02T08:05:10.110Z,2.50
2018-02-02T08:07:39.453Z,2.50
2018-02-02T08:10:09.819Z,2.50
2018-02-02T08:12:39.612Z,2.70
2018-02-02T08:15:08.913Z,2.70
2018-02-02T08:17:37.910Z,2.80
2018-02-02T08:20:06.986Z,2.90
2018-02-02T08:22:36.299Z,2.60
2018-02-02T08:25:05.252Z,2.70
2018-02-02T08:27:34.689Z,2.80
2018-02-02T08:30:04.454Z,2.90
2018-02-02T08:32:33.436Z,2.80
2018-02-02T08:35:02.425Z,2.80
2018-02-02T08:37:31.733Z,2.80
2018-02-02T08:40:00.805Z,2.80
2018-02-02T08:42:30.094Z,2.70
2018-02-02T08:44:59.057Z,2.90
2018-02-02T08:47:28.090Z,2.80
2018-02-02T08:49:58.135Z,3.00
2018-02-02T08:52:28.250Z,3.00
2018-02-02T08:54:57.342Z,3.00
2018-02-02T08:57:26.702Z,3.20
2018-02-02T08:59:55.810Z,3.20
2018-02-02T09:02:25.434Z,3.20
2018-02-02T09:04:54.389Z,3.40
2018-02-02T09:07:23.328Z,3.40
2018-02-02T09:09:52.663Z,3.60
2018-02-02T09:12:22.422Z,3.70
2018-02-02T09:14:51.449Z,3.60
2018-02-02T09:17:21.190Z,3.70
2018-02-02T09:19:51.064Z,3.80
2018-02-02T09:22:20.064Z,3.80
2018-02-02T09:24:49.091Z,3.90
2018-02-02T09:27:17.137Z,4.00
2018-02-02T09:29:46.433Z,4.00
2018-02-02T09:32:15.692Z,4.00
2018-02-02T09:34:44.921Z,4.10
2018-02-02T09:37:14.429Z,3.70
2018-02-02T09:39:44.282Z,3.80
2018-02-02T09:42:13.370Z,3.80
2018-02-02T09:44:42.366Z,3.90
2018-02-02T09:47:11.321Z,3.80
2018-02-02T09:49:40.611Z,3.70
2018-02-02T09:52:09.563Z,3.60
2018-02-02T09:54:38.612Z,3.50
2018-02-02T09:57:08.442Z,3.40
2018-02-02T09:59:38.549Z,3.40
2018-02-02T10:02:07.967Z,3.30
2018-02-02T10:04:37.057Z,3.40
2018-02-02T10:07:07.117Z,3.30
2018-02-02T10:09:36.840Z,3.20
2018-02-02T10:12:06.950Z,3.50
2018-02-02T10:14:36.261Z,3.50
2018-02-02T10:17:05.750Z,3.70
2018-02-02T10:19:34.814Z,3.70
2018-02-02T10:22:04.604Z,3.70
2018-02-02T10:24:34.614Z,3.80
2018-02-02T10:27:04.665Z,3.80
2018-02-02T10:29:34.805Z,3.80
2018-02-02T10:32:04.188Z,3.80
2018-02-02T10:34:33.213Z,3.90
2018-02-02T10:37:02.198Z,4.00
2018-02-02T10:39:31.187Z,3.90
2018-02-02T10:42:00.114Z,3.90
2018-02-02T10:44:29.113Z,4.10
2018-02-02T10:46:58.329Z,3.90
2018-02-02T10:49:28.618Z,4.00
2018-02-02T10:51:58.501Z,4.30
2018-02-02T10:54:27.578Z,4.20
2018-02-02T10:56:56.572Z,4.00
2018-02-02T10:59:26.504Z,3.90
2018-02-02T11:02:00.366Z,4.00
2018-02-02T11:04:29.642Z,4.20
2018-02-02T11:06:59.047Z,4.20
2018-02-02T11:09:28.782Z,4.30
2018-02-02T11:11:57.937Z,4.20
2018-02-02T11:14:26.957Z,4.40
2018-02-02T11:16:56.005Z,4.30
2018-02-02T11:19:24.985Z,4.50
2018-02-02T11:21:54.094Z,4.50
2018-02-02T11:24:24.276Z,4.60
2018-02-02T11:26:53.312Z,4.50
2018-02-02T11:29:22.305Z,4.60
2018-02-02T11:31:51.657Z,4.50
2018-02-02T11:34:21.107Z,4.50
2018-02-02T11:36:53.348Z,4.20
2018-02-02T11:39:23.474Z,4.10
2018-02-02T11:41:53.577Z,4.00
2018-02-02T11:44:22.635Z,4.00
2018-02-02T11:46:51.918Z,4.10
2018-02-02T11:49:20.920Z,3.90
2018-02-02T11:51:49.890Z,3.90
2018-02-02T11:54:19.545Z,3.80
2018-02-02T11:56:49.289Z,3.90
2018-02-02T11:59:19.125Z,4.00
2018-02-02T12:01:48.525Z,4.00
2018-02-02T12:04:17.480Z,3.70
2018-02-02T12:06:46.720Z,3.80
2018-02-02T12:09:17.781Z,3.90
2018-02-02T12:12:04.410Z,3.70
2018-02-02T12:14:38.109Z,3.70
2018-02-02T12:17:08.584Z,2.50
2018-02-02T12:19:38.464Z,2.30
2018-02-02T12:22:07.771Z,2.10
2018-02-02T12:24:37.818Z,2.00
2018-02-02T12:27:07.776Z,2.30
2018-02-02T12:29:37.237Z,2.30
2018-02-02T12:32:15.653Z,2.60
2018-02-02T12:34:46.414Z,1.70
2018-02-02T12:37:15.731Z,1.70
2018-02-02T12:39:45.254Z,2.00
2018-02-02T12:42:14.612Z,2.50
2018-02-02T12:44:43.537Z,2.80
2018-02-02T12:47:12.494Z,2.80
2018-02-02T12:49:46.202Z,3.10
2018-02-02T12:52:16.238Z,3.60
2018-02-02T12:54:46.191Z,3.70
2018-02-02T12:57:16.114Z,4.00
2018-02-02T12:59:45.090Z,3.90
2018-02-02T13:02:14.680Z,3.80
2018-02-02T13:04:43.762Z,3.20
2018-02-02T13:07:12.851Z,2.80
2018-02-02T13:09:42.170Z,3.20
2018-02-02T13:12:11.098Z,3.10
2018-02-02T13:14:40.824Z,3.50
2018-02-02T13:17:10.178Z,3.50
2018-02-02T13:19:39.505Z,3.30
2018-02-02T13:22:08.522Z,3.70
2018-02-02T13:24:38.114Z,4.10
2018-02-02T13:27:07.800Z,4.50
2018-02-02T13:29:36.906Z,4.60
2018-02-02T13:32:06.725Z,4.00
2018-02-02T13:34:35.738Z,3.60
2018-02-02T13:37:05.583Z,4.10
2018-02-02T13:39:35.466Z,4.10
2018-02-02T13:42:04.499Z,4.20
2018-02-02T13:44:33.499Z,4.00
2018-02-02T13:47:03.994Z,3.20
2018-02-02T13:49:33.050Z,3.20
2018-02-02T13:52:03.161Z,3.90
2018-02-02T13:54:32.504Z,3.90
2018-02-02T13:57:01.871Z,4.20
2018-02-02T13:59:31.036Z,4.40
2018-02-02T14:02:00.817Z,4.40
2018-02-02T14:04:30.292Z,4.70
2018-02-02T14:06:59.354Z,4.90
2018-02-02T14:09:28.412Z,5.20
2018-02-02T14:11:57.401Z,5.20
2018-02-02T14:14:26.782Z,5.20
2018-02-02T14:16:56.252Z,5.20
2018-02-02T14:19:25.322Z,5.00
2018-02-02T14:21:54.692Z,5.00
2018-02-02T14:24:23.731Z,5.10
2018-02-02T14:26:52.697Z,5.10
2018-02-02T14:29:21.612Z,4.90
2018-02-02T14:31:50.626Z,4.80
2018-02-02T14:34:19.983Z,4.60
2018-02-02T14:36:48.938Z,4.60
2018-02-02T14:39:19.145Z,4.60
2018-02-02T14:41:48.875Z,4.50
2018-02-02T14:44:17.967Z,4.50
2018-02-02T14:46:47.886Z,4.50
2018-02-02T14:49:17.113Z,4.50
2018-02-02T14:51:46.097Z,4.40
2018-02-02T14:54:15.728Z,4.10
2018-02-02T14:56:45.306Z,3.90
2018-02-02T14:59:14.827Z,4.00
2018-02-02T15:01:44.859Z,3.60
2018-02-02T15:04:15.244Z,3.70
2018-02-02T15:06:45.713Z,3.80
2018-02-02T15:09:15.142Z,3.70
2018-02-02T15:11:45.790Z,3.50
2018-02-02T15:14:15.558Z,3.50
2018-02-02T15:16:45.747Z,3.60
2018-02-02T15:19:15.552Z,3.40
2018-02-02T15:21:44.622Z,3.40
2018-02-02T15:24:14.359Z,3.20
2018-02-02T15:26:43.470Z,3.20
2018-02-02T15:29:13.614Z,3.30
2018-02-02T15:31:43.953Z,3.20
2018-02-02T15:34:13.561Z,3.20
2018-02-02T15:36:42.653Z,3.10
2018-02-02T15:39:11.946Z,3.00
2018-02-02T15:41:41.372Z,2.90
2018-02-02T15:44:11.091Z,2.80
2018-02-02T15:46:40.888Z,2.50
2018-02-02T15:49:10.742Z,2.40
2018-02-02T15:51:40.119Z,2.40
2018-02-02T15:54:09.513Z,2.40
2018-02-02T15:56:39.076Z,2.60
2018-02-02T15:59:08.316Z,2.70
2018-02-02T16:01:38.411Z,2.70
2018-02-02T16:05:31.639Z,2.70
2018-02-02T16:08:02.553Z,2.30
2018-02-02T16:10:32.024Z,2.30
2018-02-02T16:13:01.475Z,2.20
2018-02-02T16:15:30.879Z,2.10
2018-02-02T16:18:00.641Z,2.00
2018-02-02T16:20:29.622Z,2.00
2018-02-02T16:22:59.286Z,1.90
2018-02-02T16:25:28.452Z,1.80
2018-02-02T16:27:59.680Z,1.70
2018-02-02T16:30:30.393Z,1.70
2018-02-02T16:32:59.909Z,1.70
2018-02-02T16:35:29.486Z,1.80
2018-02-02T16:37:59.354Z,2.00
2018-02-02T16:40:29.412Z,2.00
2018-02-02T16:42:58.551Z,1.90
2018-02-02T16:45:28.904Z,1.80
2018-02-02T16:47:59.487Z,1.50
2018-02-02T16:50:30.076Z,1.50
2018-02-02T16:53:00.565Z,1.50
2018-02-02T16:55:29.970Z,1.40
2018-02-02T16:58:00.772Z,1.80
2018-02-02T17:00:31.183Z,1.80
2018-02-02T17:03:00.901Z,1.80
2018-02-02T17:05:30.116Z,1.80
2018-02-02T17:07:59.658Z,1.70
2018-02-02T17:10:28.692Z,1.70
2018-02-02T17:12:57.943Z,1.40
2018-02-02T17:15:27.583Z,1.20
2018-02-02T17:17:57.474Z,1.00
2018-02-02T17:20:27.065Z,1.00
2018-02-02T17:22:56.353Z,1.10
2018-02-02T17:25:25.725Z,1.00
2018-02-02T17:27:54.800Z,1.00
2018-02-02T17:30:24.278Z,0.90
2018-02-02T17:32:54.510Z,1.00
2018-02-02T17:35:24.217Z,1.20
2018-02-02T17:37:54.639Z,1.20
2018-02-02T17:40:24.485Z,1.20
2018-02-02T17:42:53.526Z,1.10
2018-02-02T17:45:23.914Z,1.10
2018-02-02T17:47:53.414Z,1.10
2018-02-02T17:50:23.780Z,0.80
2018-02-02T17:52:53.334Z,0.80
2018-02-02T17:55:22.712Z,0.70
2018-02-02T17:57:53.224Z,0.50
2018-02-02T18:00:22.396Z,0.50
2018-02-02T18:02:51.620Z,0.60
2018-02-02T18:05:20.902Z,0.60
2018-02-02T18:07:51.129Z,0.60
2018-02-02T18:10:21.292Z,0.60
2018-02-02T18:12:51.708Z,0.60
2018-02-02T18:15:22.473Z,0.70
2018-02-02T18:17:51.578Z,0.60
2018-02-02T18:22:43.856Z,0.90
2018-02-02T18:25:13.547Z,0.80
2018-02-02T18:27:43.160Z,0.70
2018-02-02T18:30:14.468Z,0.80
2018-02-02T18:32:47.816Z,0.80
2018-02-02T18:35:18.919Z,0.90
2018-02-02T18:37:49.556Z,0.80
2018-02-02T18:40:22.611Z,0.70
2018-02-02T18:42:51.934Z,0.70
2018-02-02T18:45:21.122Z,0.80
2018-02-02T18:47:50.210Z,0.80
2018-02-02T18:50:51.281Z,0.90
2018-02-02T18:53:46.793Z,0.90
2018-02-02T18:56:20.217Z,1.00
2018-02-02T18:59:10.947Z,1.10
2018-02-02T19:01:43.780Z,1.10
2018-02-02T19:04:12.973Z,1.00
2018-02-02T19:06:42.282Z,0.90
2018-02-02T19:09:13.558Z,0.80
2018-02-02T19:11:45.264Z,0.70
2018-02-02T19:14:16.193Z,0.70
2018-02-02T19:16:45.337Z,0.70
2018-02-02T19:19:14.553Z,0.60
2018-02-02T19:21:43.601Z,0.50
2018-02-02T19:24:12.898Z,0.60
2018-02-02T19:26:50.006Z,0.70
2018-02-02T19:29:19.892Z,0.70
2018-02-02T19:31:48.921Z,0.70
2018-02-02T19:34:18.045Z,0.50
2018-02-02T19:36:47.201Z,0.40
2018-02-02T19:39:16.627Z,0.30
2018-02-02T19:41:46.395Z,0.40
2018-02-02T19:44:15.440Z,0.40
2018-02-02T19:46:58.630Z,0.20
2018-02-02T19:49:28.036Z,0.10
2018-02-02T19:51:57.277Z,-0.10
2018-02-02T19:54:26.256Z,-0.20
2018-02-02T19:56:55.876Z,-0.20
2018-02-02T19:59:25.641Z,0.00
2018-02-02T20:01:54.659Z,0.00
2018-02-02T20:04:24.038Z,-0.10
2018-02-02T20:06:53.706Z,-0.10
2018-02-02T20:09:28.388Z,0.00
2018-02-02T20:11:57.363Z,-0.10
2018-02-02T20:14:26.824Z,0.00
2018-02-02T20:16:56.642Z,-0.20
2018-02-02T20:19:27.062Z,-0.20
2018-02-02T20:21:56.314Z,-0.20
2018-02-02T20:24:25.519Z,-0.20
2018-02-02T20:26:55.307Z,-0.10
2018-02-02T20:29:25.014Z,0.00
2018-02-02T20:31:56.023Z,-0.20
2018-02-02T20:34:26.765Z,-0.20
2018-02-02T20:36:55.978Z,-0.20
2018-02-02T20:39:26.017Z,-0.30
2018-02-02T20:41:55.066Z,-0.30
2018-02-02T20:44:24.063Z,-0.20
2018-02-02T20:46:53.151Z,-0.10
2018-02-02T20:49:22.302Z,-0.20
2018-02-02T20:51:51.661Z,-0.30
2018-02-02T20:54:20.731Z,-0.20
2018-02-02T20:56:50.267Z,-0.10
2018-02-02T20:59:19.633Z,-0.20
2018-02-02T21:01:48.690Z,-0.20
2018-02-02T21:04:18.815Z,-0.10
2018-02-02T21:06:47.929Z,-0.10
2018-02-02T21:09:16.975Z,-0.10
2018-02-02T21:11:47.140Z,0.00
2018-02-02T21:14:16.162Z,-0.10
2018-02-02T21:16:45.210Z,-0.10
2018-02-02T21:19:14.758Z,-0.10
2018-02-02T21:21:45.320Z,-0.10
2018-02-02T21:24:14.745Z,-0.10
2018-02-02T21:26:43.842Z,-0.20
2018-02-02T21:29:12.805Z,-0.30
2018-02-02T21:31:42.162Z,-0.40
2018-02-02T21:34:12.010Z,-0.50
2018-02-02T21:36:41.353Z,-0.50
2018-02-02T21:39:11.489Z,-0.40
2018-02-02T21:41:40.519Z,-0.40
2018-02-02T21:44:10.254Z,-0.30
2018-02-02T21:46:40.359Z,-0.30
2018-02-02T21:49:09.441Z,-0.40
2018-02-02T21:51:38.566Z,-0.50
2018-02-02T21:54:08.108Z,-0.50
2018-02-02T21:56:37.525Z,-0.60
2018-02-02T21:59:07.378Z,-0.40
2018-02-02T22:01:39.030Z,-0.40
2018-02-02T22:04:10.469Z,-0.30
2018-02-02T22:06:40.842Z,-0.20
2018-02-02T22:09:09.993Z,-0.30
2018-02-02T22:11:42.682Z,-0.20
2018-02-02T22:14:12.809Z,-0.10
2018-02-02T22:16:41.878Z,-0.10
2018-02-02T22:19:11.277Z,-0.10
2018-02-02T22:21:40.824Z,-0.10
2018-02-02T22:24:10.437Z,-0.10
2018-02-02T22:26:39.581Z,-0.10
2018-02-02T22:29:08.917Z,-0.10
2018-02-02T22:31:38.093Z,-0.20
2018-02-02T22:34:07.434Z,-0.10
2018-02-02T22:36:37.301Z,-0.10
2018-02-02T22:39:06.398Z,0.00
2018-02-02T22:41:37.751Z,0.00
2018-02-02T22:44:08.448Z,-0.10
2018-02-02T22:46:44.992Z,-0.20
2018-02-02T22:49:16.576Z,-0.10
2018-02-02T22:51:50.622Z,-0.10
2018-02-02T22:54:19.619Z,-0.10
2018-02-02T22:56:49.705Z,-0.20
2018-02-02T22:59:19.651Z,-0.20
2018-02-02T23:01:48.746Z,-0.10
2018-02-02T23:04:18.525Z,0.00
2018-02-02T23:06:49.569Z,0.10
2018-02-02T23:09:21.174Z,0.10
2018-02-02T23:11:51.718Z,0.20
2018-02-02T23:14:20.823Z,0.20
2018-02-02T23:16:50.511Z,0.10
2018-02-02T23:19:19.874Z,0.00
2018-02-02T23:21:55.291Z,0.10
2018-02-02T23:24:24.580Z,0.10
2018-02-02T23:26:53.619Z,0.10
2018-02-02T23:29:22.764Z,0.20
2018-02-02T23:31:52.156Z,0.40
2018-02-02T23:34:21.324Z,0.40
2018-02-02T23:36:50.786Z,0.40
2018-02-02T23:39:20.181Z,0.30
2018-02-02T23:42:19.885Z,0.30
2018-02-02T23:44:49.181Z,0.30
2018-02-02T23:47:18.239Z,0.50
2018-02-02T23:49:47.649Z,0.50
2018-02-02T23:52:16.919Z,0.50
2018-02-02T23:54:45.978Z,0.50
2018-02-02T23:57:15.642Z,0.40
2018-02-02T23:59:46.370Z,0.40
